Blue Point, Illinois
Current Conditions -  °F | °C
As of 1:55 PM on Wednesday 17 Dec 2014 (Local Time) from K1H2 Reporting Station
Overcast Overcast  
Wind Chill: -6°   Ceiling: 1700
Heat Index: -1°   Visibility: 10mi
Dew Point: -5°   Wind: 10mph
Humidity: 74%   Direction: 290°WNW
Pressure: 30.29"   Gusts: NA
Location:  39.1183°N, 88.6059°W
Report Text: K1H2 171955Z AUTO 29009KT 10SM OVC017 M01/M05 A3029 RMK AO2 T10091050
Loading
Personal Weather Stations






























Interactive Weather Map New forecast layout! Learn more

10-Day Weather Forecast

Advertisements
Track Severe Weather on mobile